Terminal Aerodrome Forecast
Issued by NWS

Home | Current Version | Previous Version | Text Only | Print | Product List | Glossary On
Versions: 1 2 3 4 5 6 7 8 9 10 11 12
413
FTUS46 KMTR 052329
TAFSNS
TAF
KSNS 052329Z 0600/0624 31007KT P6SM SCT200
     FM060500 12004KT P6SM SCT200
     FM062100 29008KT P6SM SKC=

USA.gov is the U.S. government's official web portal to all federal, state and local government web resources and services.